createdAt,value
2022-10-13T00:00:04.140Z,40.97
2022-10-13T00:02:35.707Z,34.60
2022-10-13T00:05:00.673Z,46.90
2022-10-13T00:07:24.221Z,38.90
2022-10-13T00:09:47.825Z,61.33
2022-10-13T00:12:11.390Z,67.53
2022-10-13T00:14:35.023Z,61.07
2022-10-13T00:16:58.559Z,60.30
2022-10-13T00:19:22.125Z,53.47
2022-10-13T00:21:47.050Z,42.90
2022-10-13T00:24:12.706Z,46.17
2022-10-13T00:26:36.265Z,39.53
2022-10-13T00:29:03.872Z,40.40
2022-10-13T00:31:30.112Z,35.60
2022-10-13T00:33:53.993Z,41.50
2022-10-13T00:36:18.715Z,38.83
2022-10-13T00:38:43.803Z,36.23
2022-10-13T00:41:08.379Z,32.33
2022-10-13T00:43:53.519Z,31.70
2022-10-13T00:46:17.322Z,32.87
2022-10-13T00:48:43.327Z,29.37
2022-10-13T00:51:07.426Z,27.90
2022-10-13T00:53:36.271Z,37.00
2022-10-13T00:56:02.089Z,31.37
2022-10-13T00:58:31.318Z,35.73
2022-10-13T01:00:55.285Z,28.80
2022-10-13T01:03:21.125Z,33.10
2022-10-13T01:05:45.011Z,37.57
2022-10-13T01:08:09.491Z,37.10
2022-10-13T01:10:47.155Z,25.90
2022-10-13T01:13:19.383Z,30.03
2022-10-13T01:15:53.059Z,35.93
2022-10-13T01:18:24.616Z,35.83
2022-10-13T01:21:10.375Z,40.70
2022-10-13T01:24:18.630Z,34.77
2022-10-13T01:27:49.626Z,39.70
2022-10-13T01:30:19.762Z,36.37
2022-10-13T01:33:18.416Z,36.37
2022-10-13T01:35:58.294Z,32.10
2022-10-13T01:38:34.611Z,33.90
2022-10-13T01:41:10.671Z,34.17
2022-10-13T01:43:39.586Z,39.30
2022-10-13T01:46:09.497Z,34.60
2022-10-13T01:48:34.292Z,31.03
2022-10-13T01:51:00.207Z,39.93
2022-10-13T01:53:24.492Z,33.20
2022-10-13T01:55:55.455Z,28.67
2022-10-13T01:58:19.094Z,35.47
2022-10-13T02:00:51.250Z,31.20
2022-10-13T02:03:25.141Z,31.33
2022-10-13T02:05:55.183Z,31.97
2022-10-13T02:08:26.963Z,32.97
2022-10-13T02:11:00.486Z,35.63
2022-10-13T02:13:29.063Z,34.80
2022-10-13T02:15:56.720Z,29.53
2022-10-13T02:18:25.264Z,33.43
2022-10-13T02:20:49.671Z,32.97
2022-10-13T02:23:17.071Z,32.50
2022-10-13T02:25:41.963Z,31.40
2022-10-13T02:28:06.787Z,31.10
2022-10-13T02:30:42.175Z,29.37
2022-10-13T02:33:05.743Z,27.97
2022-10-13T02:35:32.858Z,29.37
2022-10-13T02:37:57.487Z,26.17
2022-10-13T02:40:21.060Z,34.47
2022-10-13T02:42:44.679Z,32.37
2022-10-13T02:45:10.398Z,30.50
2022-10-13T02:47:33.983Z,25.77
2022-10-13T02:50:00.601Z,30.53
2022-10-13T02:52:25.730Z,30.03
2022-10-13T02:54:49.271Z,27.40
2022-10-13T02:57:12.878Z,26.50
2022-10-13T02:59:40.235Z,25.80
2022-10-13T03:02:03.852Z,22.97
2022-10-13T03:04:28.472Z,26.13
2022-10-13T03:06:55.979Z,25.30
2022-10-13T03:09:20.916Z,21.87
2022-10-13T03:11:44.569Z,29.13
2022-10-13T03:14:08.110Z,21.40
2022-10-13T03:16:31.709Z,28.13
2022-10-13T03:18:55.311Z,24.63
2022-10-13T03:21:18.898Z,26.27
2022-10-13T03:23:42.532Z,23.17
2022-10-13T03:26:07.691Z,29.23
2022-10-13T03:28:31.475Z,26.23
2022-10-13T03:31:02.502Z,29.13
2022-10-13T03:33:26.172Z,25.20
2022-10-13T03:35:53.355Z,29.27
2022-10-13T03:38:16.940Z,25.77
2022-10-13T03:40:40.491Z,30.57
2022-10-13T03:43:05.504Z,28.40
2022-10-13T03:45:31.361Z,28.40
2022-10-13T03:47:54.928Z,24.40
2022-10-13T03:50:19.257Z,30.13
2022-10-13T03:52:42.831Z,29.17
2022-10-13T03:55:07.584Z,23.90
2022-10-13T03:57:31.443Z,35.83
2022-10-13T03:59:57.620Z,32.67
2022-10-13T04:02:23.602Z,29.23
2022-10-13T04:04:48.595Z,30.10
2022-10-13T04:07:12.474Z,25.50
2022-10-13T04:09:36.143Z,30.90
2022-10-13T04:11:59.753Z,25.70
2022-10-13T04:14:23.647Z,28.37
2022-10-13T04:16:48.999Z,26.73
2022-10-13T04:19:14.803Z,28.13
2022-10-13T04:21:38.503Z,33.10
2022-10-13T04:24:03.138Z,27.23
2022-10-13T04:26:29.415Z,29.20
2022-10-13T04:28:56.831Z,28.30
2022-10-13T04:31:22.100Z,24.40
2022-10-13T04:33:47.198Z,22.83
2022-10-13T04:36:13.403Z,26.60
2022-10-13T04:38:36.998Z,26.10
2022-10-13T04:41:00.699Z,30.10
2022-10-13T04:43:24.923Z,24.83
2022-10-13T04:45:49.154Z,25.63
2022-10-13T04:48:12.681Z,32.27
2022-10-13T04:50:37.728Z,34.50
2022-10-13T04:53:01.373Z,26.60
2022-10-13T04:55:24.988Z,28.90
2022-10-13T04:57:48.501Z,31.40
2022-10-13T05:00:13.774Z,29.07
2022-10-13T05:02:37.739Z,37.90
2022-10-13T05:05:01.354Z,37.23
2022-10-13T05:07:26.371Z,36.03
2022-10-13T05:09:49.948Z,31.07
2022-10-13T05:12:13.639Z,33.90
2022-10-13T05:14:37.310Z,32.27
2022-10-13T05:17:04.322Z,33.17
2022-10-13T05:19:28.185Z,28.77
2022-10-13T05:21:52.734Z,33.67
2022-10-13T05:24:17.790Z,27.10
2022-10-13T05:26:44.055Z,28.90
2022-10-13T05:29:07.852Z,26.80
2022-10-13T05:31:33.715Z,28.37
2022-10-13T05:33:58.360Z,27.27
2022-10-13T05:36:25.045Z,33.60
2022-10-13T05:38:52.958Z,31.30
2022-10-13T05:41:17.939Z,28.30
2022-10-13T05:43:43.274Z,28.53
2022-10-13T05:46:08.079Z,31.47
2022-10-13T05:48:33.083Z,35.57
2022-10-13T05:50:59.254Z,33.00
2022-10-13T05:53:25.441Z,32.57
2022-10-13T05:55:49.644Z,31.13
2022-10-13T05:58:14.843Z,31.33
2022-10-13T06:00:38.487Z,26.97
2022-10-13T06:03:08.434Z,28.43
2022-10-13T06:05:33.861Z,32.20
2022-10-13T06:07:58.181Z,29.07
2022-10-13T06:10:22.101Z,32.00
2022-10-13T06:12:45.764Z,30.33
2022-10-13T06:15:12.188Z,28.20
2022-10-13T06:17:38.419Z,35.40
2022-10-13T06:20:01.943Z,33.17
2022-10-13T06:22:25.591Z,30.13
2022-10-13T06:24:49.315Z,30.87
2022-10-13T06:27:13.433Z,29.80
2022-10-13T06:29:37.198Z,28.60
2022-10-13T06:32:02.131Z,35.30
2022-10-13T06:34:25.757Z,31.43
2022-10-13T06:36:49.296Z,31.13
2022-10-13T06:39:12.879Z,38.70
2022-10-13T06:41:36.528Z,36.07
2022-10-13T06:44:00.086Z,30.80
2022-10-13T06:46:26.061Z,32.60
2022-10-13T06:48:52.795Z,32.72
2022-10-13T06:51:16.972Z,26.30
2022-10-13T06:53:41.383Z,31.47
2022-10-13T06:56:08.288Z,29.57
2022-10-13T06:58:32.042Z,40.70
2022-10-13T07:00:56.245Z,35.47
2022-10-13T07:03:19.951Z,29.03
2022-10-13T07:05:44.952Z,34.63
2022-10-13T07:08:08.484Z,35.23
2022-10-13T07:10:32.023Z,31.83
2022-10-13T07:12:55.569Z,97.13
2022-10-13T07:15:20.329Z,39.50
2022-10-13T07:17:46.292Z,34.80
2022-10-13T07:20:11.191Z,30.63
2022-10-13T07:22:36.191Z,32.00
2022-10-13T07:24:59.789Z,35.83
2022-10-13T07:27:23.961Z,45.13
2022-10-13T07:29:47.768Z,40.73
2022-10-13T07:32:11.365Z,39.60
2022-10-13T07:34:35.156Z,35.67
2022-10-13T07:36:58.762Z,39.58
2022-10-13T07:39:23.710Z,35.30
2022-10-13T07:41:50.887Z,38.30
2022-10-13T07:44:14.735Z,39.85
2022-10-13T07:46:38.329Z,41.00
2022-10-13T07:49:01.959Z,39.20
2022-10-13T07:51:26.036Z,35.92
2022-10-13T07:53:50.798Z,30.65
2022-10-13T07:56:17.486Z,36.13
2022-10-13T07:58:44.529Z,35.60
2022-10-13T08:01:09.284Z,35.65
2022-10-13T08:06:06.889Z,28.98
2022-10-13T08:08:31.276Z,29.00
2022-10-13T08:10:55.720Z,33.50
2022-10-13T08:13:21.990Z,28.75
2022-10-13T08:15:46.686Z,29.77
2022-10-13T08:18:10.909Z,27.30
2022-10-13T08:20:41.114Z,34.25
2022-10-13T08:23:05.064Z,39.13
2022-10-13T08:25:28.795Z,29.42
2022-10-13T08:27:54.720Z,29.38
2022-10-13T08:30:23.605Z,30.23
2022-10-13T08:32:47.470Z,35.25
2022-10-13T08:35:11.801Z,33.55
2022-10-13T08:37:35.336Z,31.55
2022-10-13T08:39:58.885Z,34.55
2022-10-13T08:42:23.734Z,31.80
2022-10-13T08:45:35.795Z,28.80
2022-10-13T08:47:43.586Z,27.15
2022-10-13T08:50:15.174Z,30.80
2022-10-13T08:52:54.328Z,31.00
2022-10-13T08:55:32.977Z,29.38
2022-10-13T08:57:56.648Z,26.80
2022-10-13T09:00:22.926Z,29.65
2022-10-13T09:02:48.339Z,29.08
2022-10-13T09:05:21.008Z,26.30
2022-10-13T09:07:47.654Z,31.27
2022-10-13T09:10:12.192Z,31.40
2022-10-13T09:12:35.769Z,27.85
2022-10-13T09:15:01.564Z,35.55
2022-10-13T09:17:27.430Z,34.90
2022-10-13T09:20:02.887Z,30.25
2022-10-13T09:22:28.751Z,27.90
2022-10-13T09:25:12.086Z,35.13
2022-10-13T09:27:44.848Z,26.20
2022-10-13T09:30:32.594Z,29.45
2022-10-13T09:33:25.079Z,37.00
2022-10-13T09:36:07.955Z,26.77
2022-10-13T09:38:31.579Z,39.85
2022-10-13T09:41:03.841Z,36.70
2022-10-13T09:43:33.546Z,32.95
2022-10-13T09:45:57.514Z,36.40
2022-10-13T09:48:25.931Z,29.63
2022-10-13T09:50:53.746Z,37.10
2022-10-13T09:53:32.257Z,33.50
2022-10-13T09:56:11.987Z,28.27
2022-10-13T09:58:38.130Z,30.50
2022-10-13T10:01:01.784Z,25.80
2022-10-13T10:03:29.135Z,26.95
2022-10-13T10:05:56.286Z,25.50
2022-10-13T10:08:33.854Z,30.90
2022-10-13T10:11:06.223Z,29.13
2022-10-13T10:13:29.884Z,27.30
2022-10-13T10:15:59.683Z,28.48
2022-10-13T10:18:33.461Z,23.77
2022-10-13T10:21:07.622Z,26.92
2022-10-13T10:23:44.364Z,23.35
2022-10-13T10:26:23.211Z,29.13
2022-10-13T10:29:11.954Z,23.52
2022-10-13T10:31:51.796Z,22.77
2022-10-13T10:34:36.760Z,23.42
2022-10-13T10:37:22.779Z,21.48
2022-10-13T10:39:52.387Z,20.55
2022-10-13T10:42:42.484Z,19.60
2022-10-13T10:45:18.931Z,23.80
2022-10-13T10:47:47.423Z,27.25
2022-10-13T10:50:17.617Z,22.35
2022-10-13T10:52:54.371Z,20.10
2022-10-13T10:55:25.272Z,22.67
2022-10-13T10:58:01.922Z,26.17
2022-10-13T11:03:04.113Z,25.38
2022-10-13T11:05:32.888Z,21.60
2022-10-13T11:08:00.130Z,25.15
2022-10-13T11:10:26.414Z,28.63
2022-10-13T11:13:19.347Z,21.80
2022-10-13T11:15:46.413Z,21.83
2022-10-13T11:19:10.299Z,25.80
2022-10-13T11:22:21.163Z,18.80
2022-10-13T11:25:01.206Z,22.70
2022-10-13T11:27:40.028Z,23.17
2022-10-13T11:30:04.751Z,21.67
2022-10-13T11:32:56.367Z,23.52
2022-10-13T11:35:25.319Z,24.00
2022-10-13T11:38:09.241Z,22.48
2022-10-13T11:40:40.987Z,23.92
2022-10-13T11:43:22.476Z,18.67
2022-10-13T11:46:28.371Z,21.55
2022-10-13T11:49:43.955Z,23.98
2022-10-13T11:52:32.158Z,23.05
2022-10-13T11:55:03.163Z,26.05
2022-10-13T11:57:32.799Z,19.02
2022-10-13T11:59:58.690Z,26.58
2022-10-13T12:02:37.560Z,24.27
2022-10-13T12:05:05.119Z,20.30
2022-10-13T12:07:37.674Z,31.02
2022-10-13T12:10:01.700Z,18.40
2022-10-13T12:12:27.759Z,18.58
2022-10-13T12:14:53.296Z,26.35
2022-10-13T12:17:25.566Z,23.17
2022-10-13T12:19:49.591Z,16.50
2022-10-13T12:22:14.874Z,13.65
2022-10-13T12:24:38.740Z,17.60
2022-10-13T12:27:12.988Z,13.85
2022-10-13T12:29:41.780Z,12.18
2022-10-13T12:32:18.221Z,12.48
2022-10-13T12:34:41.808Z,14.93
2022-10-13T12:37:16.391Z,15.35
2022-10-13T12:39:40.727Z,14.55
2022-10-13T12:42:08.111Z,13.10
2022-10-13T12:44:35.012Z,16.35
2022-10-13T12:47:02.316Z,15.73
2022-10-13T12:49:29.041Z,15.18
2022-10-13T12:51:55.790Z,18.48
2022-10-13T12:54:24.007Z,16.88
2022-10-13T12:56:50.215Z,14.60
2022-10-13T12:59:18.866Z,12.60
2022-10-13T13:01:44.935Z,14.20
2022-10-13T13:04:32.098Z,13.82
2022-10-13T13:06:58.615Z,13.27
2022-10-13T13:09:26.923Z,18.17
2022-10-13T13:12:30.415Z,14.32
2022-10-13T13:14:55.986Z,16.60
2022-10-13T13:17:52.810Z,16.65
2022-10-13T13:20:26.328Z,20.38
2022-10-13T13:22:50.758Z,38.95
2022-10-13T13:25:14.486Z,11.65
2022-10-13T13:27:41.036Z,17.00
2022-10-13T13:30:05.167Z,18.98
2022-10-13T13:32:30.992Z,22.05
2022-10-13T13:34:54.859Z,14.80
2022-10-13T13:37:31.040Z,20.70
2022-10-13T13:39:55.079Z,17.38
2022-10-13T13:42:18.851Z,20.80
2022-10-13T13:44:44.451Z,52.25
2022-10-13T13:47:17.442Z,16.50
2022-10-13T13:49:42.324Z,14.50
2022-10-13T13:52:06.456Z,25.50
2022-10-13T13:54:31.407Z,14.63
2022-10-13T13:56:58.793Z,15.55
2022-10-13T13:59:23.327Z,13.45
2022-10-13T14:01:49.589Z,14.98
2022-10-13T14:04:18.667Z,15.98
2022-10-13T14:06:42.252Z,14.45
2022-10-13T14:09:06.409Z,15.40
2022-10-13T14:11:31.335Z,17.92
2022-10-13T14:13:54.947Z,14.10
2022-10-13T14:16:23.991Z,17.88
2022-10-13T14:18:48.003Z,14.80
2022-10-13T14:21:11.579Z,14.10
2022-10-13T14:23:35.163Z,20.17
2022-10-13T14:25:58.652Z,17.00
2022-10-13T14:28:23.788Z,18.20
2022-10-13T14:30:47.316Z,13.23
2022-10-13T14:33:11.231Z,15.25
2022-10-13T14:35:34.767Z,19.30
2022-10-13T14:38:00.860Z,17.38
2022-10-13T14:40:24.547Z,16.73
2022-10-13T14:42:48.121Z,13.25
2022-10-13T14:45:15.765Z,17.48
2022-10-13T14:47:39.326Z,16.83
2022-10-13T14:50:03.301Z,15.77
2022-10-13T14:52:26.895Z,18.27
2022-10-13T14:54:50.689Z,13.75
2022-10-13T14:57:16.469Z,17.08
2022-10-13T14:59:39.978Z,17.95
2022-10-13T15:02:04.995Z,17.30
2022-10-13T15:04:29.448Z,20.17
2022-10-13T15:06:54.202Z,20.77
2022-10-13T15:09:17.956Z,18.38
2022-10-13T15:11:41.580Z,16.85
2022-10-13T15:14:05.758Z,17.05
2022-10-13T15:16:33.345Z,16.20
2022-10-13T15:18:58.315Z,15.35
2022-10-13T15:21:22.346Z,17.27
2022-10-13T15:23:46.739Z,16.80
2022-10-13T15:26:13.175Z,12.10
2022-10-13T15:28:40.017Z,16.17
2022-10-13T15:31:07.529Z,15.13
2022-10-13T15:33:31.108Z,14.77
2022-10-13T15:35:56.370Z,13.25
2022-10-13T15:38:21.867Z,18.13
2022-10-13T15:40:45.816Z,15.82
2022-10-13T15:43:09.434Z,13.60
2022-10-13T15:45:33.144Z,12.20
2022-10-13T15:47:57.710Z,14.98
2022-10-13T15:50:21.366Z,14.95
2022-10-13T15:52:46.632Z,15.90
2022-10-13T15:55:12.075Z,14.02
2022-10-13T15:57:35.586Z,17.13
2022-10-13T15:59:59.207Z,16.25
2022-10-13T16:02:23.583Z,17.02
2022-10-13T16:04:47.438Z,16.52
2022-10-13T16:07:10.975Z,16.15
2022-10-13T16:09:35.988Z,18.67
2022-10-13T16:11:59.517Z,20.52
2022-10-13T16:14:23.198Z,16.58
2022-10-13T16:16:46.775Z,16.35
2022-10-13T16:19:10.331Z,22.30
2022-10-13T16:21:33.972Z,20.13
2022-10-13T16:24:01.371Z,22.42
2022-10-13T16:26:26.279Z,20.15
2022-10-13T16:28:49.963Z,21.35
2022-10-13T16:31:15.728Z,20.15
2022-10-13T16:33:39.902Z,34.45
2022-10-13T16:36:04.596Z,25.92
2022-10-13T16:38:28.344Z,27.52
2022-10-13T16:40:51.835Z,28.25
2022-10-13T16:43:16.928Z,24.92
2022-10-13T16:46:00.053Z,26.15
2022-10-13T16:48:24.104Z,29.20
2022-10-13T16:50:47.813Z,29.05
2022-10-13T16:53:11.517Z,27.13
2022-10-13T16:55:35.167Z,23.38
2022-10-13T16:57:58.723Z,26.20
2022-10-13T17:00:24.002Z,22.40
2022-10-13T17:02:47.757Z,27.10
2022-10-13T17:05:11.480Z,26.17
2022-10-13T17:07:35.213Z,23.52
2022-10-13T17:09:58.827Z,26.55
2022-10-13T17:12:22.519Z,27.60
2022-10-13T17:14:46.012Z,28.92
2022-10-13T17:17:11.395Z,22.40
2022-10-13T17:19:36.087Z,22.88
2022-10-13T17:21:59.909Z,22.65
2022-10-13T17:24:23.591Z,27.05
2022-10-13T17:26:47.219Z,28.33
2022-10-13T17:29:10.767Z,32.22
2022-10-13T17:31:34.480Z,26.27
2022-10-13T17:34:00.718Z,26.60
2022-10-13T17:36:27.202Z,29.48
2022-10-13T17:38:51.644Z,24.50
2022-10-13T17:41:15.832Z,27.27
2022-10-13T17:43:45.454Z,26.65
2022-10-13T17:46:35.138Z,24.98
2022-10-13T17:48:58.395Z,24.15
2022-10-13T17:51:22.224Z,30.83
2022-10-13T17:53:46.704Z,36.08
2022-10-13T17:56:15.018Z,30.50
2022-10-13T17:58:39.584Z,29.10
2022-10-13T18:01:13.320Z,31.90
2022-10-13T18:03:39.127Z,30.48
2022-10-13T18:06:04.592Z,37.80
2022-10-13T18:08:28.191Z,39.13
2022-10-13T18:11:08.456Z,37.22
2022-10-13T18:13:32.422Z,36.40
2022-10-13T18:15:56.059Z,39.47
2022-10-13T18:18:19.679Z,35.42
2022-10-13T18:20:43.220Z,34.25
2022-10-13T18:23:08.242Z,41.97
2022-10-13T18:25:36.847Z,43.22
2022-10-13T18:28:00.474Z,38.58
2022-10-13T18:30:24.034Z,36.78
2022-10-13T18:32:47.641Z,35.67
2022-10-13T18:35:11.435Z,44.15
2022-10-13T18:37:35.085Z,39.40
2022-10-13T18:40:00.086Z,41.70
2022-10-13T18:42:23.779Z,40.83
2022-10-13T18:44:47.348Z,45.40
2022-10-13T18:47:10.911Z,39.58
2022-10-13T18:49:34.563Z,46.33
2022-10-13T18:51:59.468Z,38.15
2022-10-13T18:54:23.043Z,42.70
2022-10-13T18:56:48.134Z,38.72
2022-10-13T18:59:12.767Z,38.05
2022-10-13T19:01:39.029Z,37.95
2022-10-13T19:04:02.728Z,39.15
2022-10-13T19:06:28.219Z,36.35
2022-10-13T19:08:51.823Z,37.78
2022-10-13T19:11:17.952Z,43.45
2022-10-13T19:13:43.135Z,38.53
2022-10-13T19:16:08.170Z,43.17
2022-10-13T19:18:31.708Z,44.28
2022-10-13T19:20:55.375Z,43.40
2022-10-13T19:23:19.073Z,39.60
2022-10-13T19:25:43.610Z,44.42
2022-10-13T19:28:07.664Z,41.30
2022-10-13T19:30:32.622Z,41.65
2022-10-13T19:32:56.143Z,54.53
2022-10-13T19:35:19.874Z,50.42
2022-10-13T19:37:43.488Z,44.33
2022-10-13T19:40:09.735Z,56.45
2022-10-13T19:42:33.819Z,48.95
2022-10-13T19:44:58.361Z,41.67
2022-10-13T19:47:23.540Z,47.63
2022-10-13T19:49:47.374Z,44.67
2022-10-13T19:52:10.960Z,44.95
2022-10-13T19:54:37.162Z,47.45
2022-10-13T19:57:00.752Z,48.65
2022-10-13T19:59:24.307Z,40.33
2022-10-13T20:01:48.037Z,38.33
2022-10-13T20:04:14.250Z,45.17
2022-10-13T20:06:40.318Z,43.80
2022-10-13T20:09:04.645Z,47.25
2022-10-13T20:11:28.595Z,39.17
2022-10-13T20:13:52.869Z,44.13
2022-10-13T20:16:18.743Z,47.97
2022-10-13T20:18:42.736Z,51.95
2022-10-13T20:21:10.059Z,38.38
2022-10-13T20:23:34.564Z,36.88
2022-10-13T20:25:58.091Z,43.55
2022-10-13T20:28:25.123Z,41.92
2022-10-13T20:30:48.751Z,53.22
2022-10-13T20:33:12.815Z,57.80
2022-10-13T20:35:36.354Z,43.58
2022-10-13T20:38:01.319Z,47.38
2022-10-13T20:40:25.083Z,51.13
2022-10-13T20:42:52.046Z,54.10
2022-10-13T20:45:17.206Z,57.95
2022-10-13T20:47:40.912Z,49.45
2022-10-13T20:50:08.476Z,46.38
2022-10-13T20:52:32.964Z,45.30
2022-10-13T20:54:57.856Z,50.05
2022-10-13T20:57:22.326Z,57.63
2022-10-13T20:59:47.148Z,62.00
2022-10-13T21:02:14.112Z,48.78
2022-10-13T21:04:37.651Z,51.17
2022-10-13T21:07:01.183Z,61.20
2022-10-13T21:09:24.806Z,49.60
2022-10-13T21:11:49.863Z,55.22
2022-10-13T21:14:13.438Z,59.25
2022-10-13T21:16:37.674Z,53.75
2022-10-13T21:19:05.844Z,51.42
2022-10-13T21:21:32.896Z,58.78
2022-10-13T21:23:59.058Z,67.57
2022-10-13T21:26:23.808Z,69.40
2022-10-13T21:28:49.001Z,66.22
2022-10-13T21:31:15.607Z,59.75
2022-10-13T21:33:41.327Z,57.33
2022-10-13T21:36:08.395Z,61.80
2022-10-13T21:38:31.934Z,52.33
2022-10-13T21:40:55.559Z,57.47
2022-10-13T21:43:19.070Z,59.53
2022-10-13T21:45:44.027Z,52.30
2022-10-13T21:48:08.224Z,55.33
2022-10-13T21:50:32.127Z,65.25
2022-10-13T21:52:55.630Z,54.05
2022-10-13T21:55:22.313Z,55.28
2022-10-13T21:57:47.247Z,60.72
2022-10-13T22:00:12.503Z,66.28
2022-10-13T22:02:37.575Z,63.20
2022-10-13T22:05:01.157Z,59.78
2022-10-13T22:07:24.710Z,55.85
2022-10-13T22:09:48.327Z,58.75
2022-10-13T22:12:11.875Z,71.47
2022-10-13T22:14:35.445Z,73.00
2022-10-13T22:16:58.992Z,59.08
2022-10-13T22:19:24.355Z,62.80
2022-10-13T22:21:49.922Z,60.13
2022-10-13T22:24:16.375Z,65.30
2022-10-13T22:26:42.214Z,60.67
2022-10-13T22:29:08.000Z,63.38
2022-10-13T22:31:33.296Z,64.20
2022-10-13T22:34:03.320Z,57.85
2022-10-13T22:36:30.842Z,61.75
2022-10-13T22:38:57.634Z,58.50
2022-10-13T22:41:22.325Z,54.15
2022-10-13T22:43:47.914Z,52.15
2022-10-13T22:46:12.314Z,52.85
2022-10-13T22:48:40.585Z,62.42
2022-10-13T22:51:06.060Z,54.97
2022-10-13T22:53:31.445Z,61.20
2022-10-13T22:55:55.015Z,54.63
2022-10-13T22:58:18.567Z,57.38
2022-10-13T23:00:43.063Z,65.88
2022-10-13T23:03:07.617Z,59.97
2022-10-13T23:05:31.319Z,55.75
2022-10-13T23:07:55.079Z,66.65
2022-10-13T23:10:20.118Z,61.22
2022-10-13T23:12:43.646Z,62.28
2022-10-13T23:15:09.115Z,72.57
2022-10-13T23:17:32.676Z,68.78
2022-10-13T23:19:56.331Z,66.65
2022-10-13T23:22:19.876Z,67.25
2022-10-13T23:24:43.629Z,71.88
2022-10-13T23:27:08.536Z,58.72
2022-10-13T23:29:32.103Z,71.47
2022-10-13T23:31:55.644Z,58.83
2022-10-13T23:34:19.279Z,55.53
2022-10-13T23:36:42.787Z,65.28
2022-10-13T23:39:08.087Z,67.68
2022-10-13T23:41:32.369Z,65.18
2022-10-13T23:43:57.643Z,65.65
2022-10-13T23:46:21.558Z,54.20
2022-10-13T23:48:45.199Z,56.53
2022-10-13T23:51:10.746Z,60.85
2022-10-13T23:53:36.579Z,67.30
2022-10-13T23:56:03.031Z,68.78
2022-10-13T23:58:26.879Z,63.50
